createdAt,value
2023-05-23T00:02:31.813Z,101149.41
2023-05-23T00:05:33.733Z,101149.75
2023-05-23T00:08:35.355Z,101149.03
2023-05-23T00:11:37.454Z,101150.13
2023-05-23T00:14:40.328Z,101150.13
2023-05-23T00:17:42.691Z,101144.91
2023-05-23T00:20:46.878Z,101146.59
2023-05-23T00:23:48.448Z,101152.09
2023-05-23T00:26:50.043Z,101152.19
2023-05-23T00:29:52.038Z,101140.75
2023-05-23T00:32:54.596Z,101145.38
2023-05-23T00:35:56.227Z,101138.44
2023-05-23T00:38:57.807Z,101139.38
2023-05-23T00:41:59.438Z,101141.25
2023-05-23T00:45:01.100Z,101141.25
2023-05-23T00:48:04.517Z,101134.03
2023-05-23T00:51:06.295Z,101135.97
2023-05-23T00:54:07.988Z,101132.72
2023-05-23T00:57:09.612Z,101119.41
2023-05-23T01:00:15.438Z,101120.50
2023-05-23T01:03:18.375Z,101113.47
2023-05-23T01:06:20.470Z,101110.03
2023-05-23T01:09:27.452Z,101101.25
2023-05-23T01:12:51.303Z,101112.09
2023-05-23T01:15:59.825Z,101106.13
2023-05-23T01:19:23.402Z,101105.41
2023-05-23T01:22:42.071Z,101095.91
2023-05-23T01:26:05.233Z,101100.53
2023-05-23T01:29:24.446Z,101104.19
2023-05-23T01:32:29.007Z,101100.78
2023-05-23T01:35:31.749Z,101111.50
2023-05-23T01:38:33.415Z,101115.25
2023-05-23T01:41:35.013Z,101104.63
2023-05-23T01:44:37.920Z,101111.00
2023-05-23T01:47:41.384Z,101115.63
2023-05-23T01:50:45.586Z,101120.97
2023-05-23T01:53:47.154Z,101121.94
2023-05-23T01:56:49.385Z,101123.75
2023-05-23T01:59:51.247Z,101111.44
2023-05-23T02:02:53.062Z,101100.88
2023-05-23T02:05:54.706Z,101111.59
2023-05-23T02:08:56.234Z,101112.66
2023-05-23T02:11:57.877Z,101107.31
2023-05-23T02:14:59.508Z,101104.72
2023-05-23T02:18:03.255Z,101110.94
2023-05-23T02:21:05.957Z,101108.28
2023-05-23T02:24:07.552Z,101110.09
2023-05-23T02:27:09.141Z,101114.63
2023-05-23T02:30:11.206Z,101118.25
2023-05-23T02:33:12.895Z,101116.53
2023-05-23T02:36:14.756Z,101106.19
2023-05-23T02:39:16.692Z,101106.31
2023-05-23T02:42:18.262Z,101110.81
2023-05-23T02:45:19.958Z,101115.22
2023-05-23T02:48:21.615Z,101117.88
2023-05-23T02:51:23.464Z,101113.38
2023-05-23T02:54:25.077Z,101115.31
2023-05-23T02:57:26.708Z,101114.56
2023-05-23T03:00:29.559Z,101118.25
2023-05-23T03:03:34.274Z,101116.75
2023-05-23T03:06:36.890Z,101125.00
2023-05-23T03:09:38.637Z,101119.91
2023-05-23T03:12:40.893Z,101117.47
2023-05-23T03:15:42.667Z,101117.47
2023-05-23T03:18:44.474Z,101115.75
2023-05-23T03:21:46.078Z,101113.06
2023-05-23T03:24:47.712Z,101115.75
2023-05-23T03:27:49.283Z,101109.75
2023-05-23T03:30:50.820Z,101120.69
2023-05-23T03:33:53.761Z,101119.09
2023-05-23T03:36:55.311Z,101118.34
2023-05-23T03:39:56.913Z,101119.22
2023-05-23T03:43:05.859Z,101118.34
2023-05-23T03:46:07.555Z,101121.25
2023-05-23T03:49:09.123Z,101119.44
2023-05-23T03:52:11.211Z,101129.28
2023-05-23T03:55:12.924Z,101128.44
2023-05-23T03:58:14.669Z,101129.63
2023-05-23T04:01:16.245Z,101140.44
2023-05-23T04:04:18.334Z,101148.47
2023-05-23T04:07:20.091Z,101148.59
2023-05-23T04:10:21.674Z,101158.56
2023-05-23T04:13:24.947Z,101154.28
2023-05-23T04:16:26.592Z,101162.53
2023-05-23T04:19:28.296Z,101163.50
2023-05-23T04:22:29.898Z,101159.34
2023-05-23T04:25:31.459Z,101170.25
2023-05-23T04:28:34.499Z,101163.44
2023-05-23T04:31:36.092Z,101175.09
2023-05-23T04:34:38.037Z,101178.97
2023-05-23T04:37:40.230Z,101174.81
2023-05-23T04:40:42.215Z,101180.38
2023-05-23T04:43:44.391Z,101188.63
2023-05-23T04:46:46.216Z,101189.91
2023-05-23T04:49:48.042Z,101187.38
2023-05-23T04:52:49.625Z,101209.84
2023-05-23T04:55:51.444Z,101198.50
2023-05-23T04:58:53.121Z,101204.91
2023-05-23T05:01:54.731Z,101215.84
2023-05-23T05:04:56.293Z,101215.06
2023-05-23T05:07:57.907Z,101224.28
2023-05-23T05:10:59.493Z,101229.97
2023-05-23T05:14:01.085Z,101226.66
2023-05-23T05:17:02.921Z,101225.16
2023-05-23T05:20:08.823Z,101238.72
2023-05-23T05:23:11.580Z,101236.34
2023-05-23T05:26:13.229Z,101241.91
2023-05-23T05:29:15.564Z,101246.63
2023-05-23T05:32:17.133Z,101257.59
2023-05-23T05:35:18.842Z,101264.78
2023-05-23T05:38:20.634Z,101268.63
2023-05-23T05:41:22.392Z,101273.34
2023-05-23T05:44:23.961Z,101270.88
2023-05-23T05:47:25.964Z,101279.09
2023-05-23T05:50:27.752Z,101280.13
2023-05-23T05:53:29.326Z,101286.75
2023-05-23T05:56:30.951Z,101306.50
2023-05-23T05:59:32.731Z,101303.63
2023-05-23T06:02:34.438Z,101298.28
2023-05-23T06:05:37.557Z,101312.72
2023-05-23T06:08:39.195Z,101304.81
2023-05-23T06:11:41.333Z,101313.88
2023-05-23T06:14:42.960Z,101315.16
2023-05-23T06:17:44.991Z,101313.66
2023-05-23T06:20:46.627Z,101321.13
2023-05-23T06:23:48.272Z,101323.31
2023-05-23T06:26:49.857Z,101330.69
2023-05-23T06:29:51.464Z,101334.41
2023-05-23T06:32:53.077Z,101340.81
2023-05-23T06:35:54.762Z,101355.22
2023-05-23T06:38:56.341Z,101344.72
2023-05-23T06:41:58.017Z,101353.69
2023-05-23T06:44:59.710Z,101360.94
2023-05-23T06:48:01.464Z,101369.06
2023-05-23T06:51:03.497Z,101368.28
2023-05-23T06:54:05.545Z,101386.31
2023-05-23T06:57:07.164Z,101382.03
2023-05-23T07:00:09.403Z,101381.28
2023-05-23T07:03:11.114Z,101403.56
2023-05-23T07:06:13.152Z,101408.03
2023-05-23T07:09:14.753Z,101405.38
2023-05-23T07:12:16.443Z,101423.22
2023-05-23T07:15:18.084Z,101417.19
2023-05-23T07:18:20.520Z,101425.31
2023-05-23T07:21:22.138Z,101423.78
2023-05-23T07:24:25.312Z,101436.53
2023-05-23T07:27:27.366Z,101438.41
2023-05-23T07:30:29.918Z,101455.41
2023-05-23T07:33:34.626Z,101448.63
2023-05-23T07:36:37.917Z,101451.59
2023-05-23T07:39:39.636Z,101456.22
2023-05-23T07:42:41.219Z,101477.75
2023-05-23T07:45:42.822Z,101471.75
2023-05-23T07:48:44.423Z,101480.88
2023-05-23T07:51:46.132Z,101493.56
2023-05-23T07:54:47.777Z,101486.59
2023-05-23T07:57:49.622Z,101487.72
2023-05-23T08:00:52.898Z,101488.75
2023-05-23T08:03:55.103Z,101496.88
2023-05-23T08:10:02.411Z,101507.88
2023-05-23T08:13:07.007Z,101500.16
2023-05-23T08:16:08.643Z,101503.00
2023-05-23T08:19:10.416Z,101511.09
2023-05-23T08:22:12.046Z,101514.69
2023-05-23T08:25:13.603Z,101519.19
2023-05-23T08:28:15.411Z,101521.94
2023-05-23T08:31:17.968Z,101537.94
2023-05-23T08:34:20.033Z,101529.84
2023-05-23T08:37:23.218Z,101528.88
2023-05-23T08:40:30.382Z,101537.75
2023-05-23T08:43:33.718Z,101544.03
2023-05-23T08:46:41.500Z,101543.09
2023-05-23T08:49:44.170Z,101551.19
2023-05-23T08:52:51.752Z,101546.88
2023-05-23T08:55:55.729Z,101551.47
2023-05-23T08:58:58.390Z,101549.63
2023-05-23T09:02:00.756Z,101552.28
2023-05-23T09:05:02.598Z,101573.63
2023-05-23T09:08:04.392Z,101567.44
2023-05-23T09:11:06.934Z,101576.28
2023-05-23T09:14:08.970Z,101571.91
2023-05-23T09:17:10.560Z,101580.69
2023-05-23T09:20:17.560Z,101580.69
2023-05-23T09:23:19.629Z,101593.91
2023-05-23T09:26:21.392Z,101591.06
2023-05-23T09:29:23.062Z,101605.34
2023-05-23T09:32:24.710Z,101615.34
2023-05-23T09:35:28.530Z,101618.09
2023-05-23T09:38:30.196Z,101615.34
2023-05-23T09:41:35.624Z,101623.16
2023-05-23T09:44:42.818Z,101618.59
2023-05-23T09:47:53.638Z,101620.28
2023-05-23T09:50:55.997Z,101631.75
2023-05-23T09:53:57.627Z,101629.00
2023-05-23T09:57:01.348Z,101633.88
2023-05-23T10:00:11.544Z,101630.09
2023-05-23T10:03:17.469Z,101634.22
2023-05-23T10:06:42.912Z,101642.47
2023-05-23T10:09:59.864Z,101641.81
2023-05-23T10:13:06.089Z,101638.69
2023-05-23T10:16:13.970Z,101647.84
2023-05-23T10:19:26.421Z,101660.81
2023-05-23T10:22:28.778Z,101665.63
2023-05-23T10:25:30.994Z,101665.47
2023-05-23T10:28:33.646Z,101668.72
2023-05-23T10:31:36.471Z,101666.75
2023-05-23T10:34:41.931Z,101671.41
2023-05-23T10:38:07.812Z,101673.38
2023-05-23T10:41:36.728Z,101673.59
2023-05-23T10:44:38.343Z,101681.03
2023-05-23T10:47:40.093Z,101687.41
2023-05-23T10:50:42.332Z,101683.09
2023-05-23T10:53:46.560Z,101687.41
2023-05-23T10:57:02.945Z,101689.09
2023-05-23T11:00:05.854Z,101681.69
2023-05-23T11:03:09.250Z,101700.19
2023-05-23T11:06:48.305Z,101688.56
2023-05-23T11:10:05.578Z,101697.34
2023-05-23T11:13:07.794Z,101697.53
2023-05-23T11:16:25.720Z,101702.09
2023-05-23T11:19:29.472Z,101713.72
2023-05-23T11:22:31.519Z,101708.38
2023-05-23T11:25:59.601Z,101709.81
2023-05-23T11:29:04.014Z,101703.56
2023-05-23T11:32:16.006Z,101701.47
2023-05-23T11:35:19.260Z,101707.47
2023-05-23T11:38:21.217Z,101714.41
2023-05-23T11:41:22.809Z,101713.28
2023-05-23T11:44:24.413Z,101717.38
2023-05-23T11:47:26.177Z,101719.78
2023-05-23T11:50:27.827Z,101733.47
2023-05-23T11:53:30.302Z,101734.69
2023-05-23T11:56:32.178Z,101733.47
2023-05-23T11:59:34.158Z,101742.16
2023-05-23T12:02:42.744Z,101738.94
2023-05-23T12:05:45.582Z,101746.66
2023-05-23T12:08:47.982Z,101750.28
2023-05-23T12:11:50.144Z,101753.06
2023-05-23T12:14:56.426Z,101756.78
2023-05-23T12:17:58.383Z,101757.72
2023-05-23T12:21:01.476Z,101749.81
2023-05-23T12:24:31.643Z,101757.16
2023-05-23T12:27:35.686Z,101758.13
2023-05-23T12:30:44.436Z,101753.63
2023-05-23T12:33:48.030Z,101751.72
2023-05-23T12:36:55.017Z,101764.13
2023-05-23T12:40:15.433Z,101756.19
2023-05-23T12:43:17.084Z,101760.78
2023-05-23T12:46:19.758Z,101766.03
2023-05-23T12:49:21.947Z,101761.25
2023-05-23T12:52:23.616Z,101763.63
2023-05-23T12:55:25.497Z,101782.94
2023-05-23T12:58:29.725Z,101766.63
2023-05-23T13:01:34.563Z,101774.44
2023-05-23T13:04:36.364Z,101790.41
2023-05-23T13:07:38.007Z,101784.94
2023-05-23T13:10:41.118Z,101786.47
2023-05-23T13:13:42.811Z,101776.25
2023-05-23T13:16:45.686Z,101784.09
2023-05-23T13:19:47.338Z,101784.94
2023-05-23T13:22:49.883Z,101797.72
2023-05-23T13:25:51.883Z,101793.44
2023-05-23T13:28:53.584Z,101798.88
2023-05-23T13:31:55.350Z,101793.66
2023-05-23T13:34:56.938Z,101790.75
2023-05-23T13:37:58.550Z,101792.69
2023-05-23T13:41:00.266Z,101793.22
2023-05-23T13:44:01.864Z,101799.59
2023-05-23T13:47:13.125Z,101795.78
2023-05-23T13:50:15.103Z,101794.91
2023-05-23T13:53:17.904Z,101793.00
2023-05-23T13:56:20.406Z,101797.47
2023-05-23T13:59:22.803Z,101792.03
2023-05-23T14:02:24.486Z,101802.75
2023-05-23T14:05:27.607Z,101811.72
2023-05-23T14:08:29.362Z,101817.75
2023-05-23T14:11:31.194Z,101812.75
2023-05-23T14:14:32.814Z,101821.72
2023-05-23T14:17:34.458Z,101820.88
2023-05-23T14:20:36.509Z,101827.69
2023-05-23T14:23:38.183Z,101841.72
2023-05-23T14:26:39.834Z,101830.09
2023-05-23T14:29:46.327Z,101828.00
2023-05-23T14:32:48.041Z,101826.69
2023-05-23T14:35:50.052Z,101827.81
2023-05-23T14:38:51.798Z,101828.78
2023-05-23T14:41:54.306Z,101831.53
2023-05-23T14:44:57.009Z,101820.09
2023-05-23T14:47:59.813Z,101844.25
2023-05-23T14:51:02.797Z,101838.41
2023-05-23T14:54:06.507Z,101834.69
2023-05-23T14:57:09.543Z,101827.66
2023-05-23T15:00:14.136Z,101833.19
2023-05-23T15:03:17.420Z,101842.53
2023-05-23T15:06:19.102Z,101851.78
2023-05-23T15:09:20.710Z,101840.41
2023-05-23T15:12:22.374Z,101845.75
2023-05-23T15:15:24.057Z,101845.59
2023-05-23T15:18:39.605Z,101852.75
2023-05-23T15:21:50.531Z,101851.97
2023-05-23T15:24:53.000Z,101853.91
2023-05-23T15:27:54.717Z,101858.59
2023-05-23T15:30:57.210Z,101862.31
2023-05-23T15:33:58.816Z,101864.00
2023-05-23T15:37:00.643Z,101859.63
2023-05-23T15:40:02.570Z,101861.50
2023-05-23T15:43:04.295Z,101856.28
2023-05-23T15:46:05.882Z,101856.09
2023-05-23T15:49:21.301Z,101851.13
2023-05-23T15:52:28.673Z,101855.16
2023-05-23T15:55:30.875Z,101862.97
2023-05-23T15:58:32.525Z,101864.88
2023-05-23T16:01:34.681Z,101858.09
2023-05-23T16:04:36.579Z,101859.34
2023-05-23T16:07:38.889Z,101859.81
2023-05-23T16:10:40.562Z,101858.19
2023-05-23T16:13:42.241Z,101863.44
2023-05-23T16:16:44.144Z,101860.00
2023-05-23T16:19:45.806Z,101861.31
2023-05-23T16:22:47.477Z,101865.97
2023-05-23T16:25:49.286Z,101875.19
2023-05-23T16:28:50.879Z,101864.97
2023-05-23T16:31:52.467Z,101873.34
2023-05-23T16:34:54.836Z,101865.63
2023-05-23T16:37:56.532Z,101869.16
2023-05-23T16:40:59.043Z,101860.94
2023-05-23T16:44:02.033Z,101863.34
2023-05-23T16:47:05.160Z,101857.72
2023-05-23T16:50:09.315Z,101871.00
2023-05-23T16:53:11.125Z,101873.56
2023-05-23T16:56:12.757Z,101873.56
2023-05-23T16:59:14.370Z,101866.41
2023-05-23T17:02:16.216Z,101869.00
2023-05-23T17:05:17.839Z,101863.66
2023-05-23T17:08:19.644Z,101864.72
2023-05-23T17:11:21.763Z,101868.31
2023-05-23T17:14:24.056Z,101871.09
2023-05-23T17:17:26.588Z,101874.88
2023-05-23T17:20:28.296Z,101863.81
2023-05-23T17:23:30.808Z,101870.44
2023-05-23T17:26:33.830Z,101874.44
2023-05-23T17:29:35.836Z,101877.53
2023-05-23T17:32:38.130Z,101882.50
2023-05-23T17:35:40.362Z,101880.31
2023-05-23T17:38:43.202Z,101885.16
2023-05-23T17:41:44.858Z,101881.03
2023-05-23T17:44:46.433Z,101886.75
2023-05-23T17:47:48.085Z,101888.88
2023-05-23T17:50:49.756Z,101888.25
2023-05-23T17:53:53.771Z,101890.31
2023-05-23T17:56:55.762Z,101888.84
2023-05-23T17:59:58.390Z,101883.88
2023-05-23T18:03:02.669Z,101911.72
2023-05-23T18:06:04.573Z,101909.47
2023-05-23T18:09:06.364Z,101901.09
2023-05-23T18:12:08.024Z,101902.38
2023-05-23T18:15:10.287Z,101910.53
2023-05-23T18:18:12.187Z,101902.88
2023-05-23T18:21:14.023Z,101907.59
2023-05-23T18:24:16.533Z,101921.00
2023-05-23T18:27:18.214Z,101910.47
2023-05-23T18:30:19.858Z,101908.00
2023-05-23T18:33:21.899Z,101906.38
2023-05-23T18:36:23.709Z,101900.31
2023-05-23T18:39:25.583Z,101906.78
2023-05-23T18:42:28.643Z,101910.44
2023-05-23T18:45:31.672Z,101908.88
2023-05-23T18:48:35.750Z,101912.66
2023-05-23T18:51:38.773Z,101929.75
2023-05-23T18:54:42.898Z,101921.03
2023-05-23T18:57:46.736Z,101926.53
2023-05-23T19:00:51.014Z,101926.63
2023-05-23T19:03:54.417Z,101926.75
2023-05-23T19:06:58.213Z,101925.13
2023-05-23T19:09:59.988Z,101923.47
2023-05-23T19:13:02.462Z,101915.81
2023-05-23T19:16:05.787Z,101926.59
2023-05-23T19:19:07.569Z,101929.31
2023-05-23T19:22:09.689Z,101928.56
2023-05-23T19:25:12.119Z,101931.34
2023-05-23T19:28:17.533Z,101928.00
2023-05-23T19:31:20.475Z,101936.63
2023-05-23T19:34:24.215Z,101927.13
2023-05-23T19:37:28.640Z,101932.59
2023-05-23T19:40:31.817Z,101937.28
2023-05-23T19:43:35.334Z,101936.50
2023-05-23T19:46:38.514Z,101937.50
2023-05-23T19:49:40.266Z,101938.59
2023-05-23T19:52:42.211Z,101932.63
2023-05-23T19:55:43.859Z,101937.19
2023-05-23T19:58:45.636Z,101939.13
2023-05-23T20:01:47.252Z,101948.13
2023-05-23T20:04:48.993Z,101947.38
2023-05-23T20:07:50.636Z,101954.59
2023-05-23T20:10:52.337Z,101951.16
2023-05-23T20:13:53.932Z,101949.50
2023-05-23T20:16:56.141Z,101954.91
2023-05-23T20:19:57.783Z,101943.31
2023-05-23T20:22:59.558Z,101954.97
2023-05-23T20:26:02.228Z,101938.28
2023-05-23T20:29:03.903Z,101943.66
2023-05-23T20:32:05.861Z,101949.84
2023-05-23T20:35:09.009Z,101953.53
2023-05-23T20:38:11.521Z,101949.06
2023-05-23T20:41:14.341Z,101950.00
2023-05-23T20:44:17.448Z,101945.53
2023-05-23T20:47:20.185Z,101942.88
2023-05-23T20:50:22.818Z,101943.84
2023-05-23T20:53:24.559Z,101934.13
2023-05-23T20:56:27.536Z,101933.34
2023-05-23T20:59:30.504Z,101928.22
2023-05-23T21:02:32.193Z,101934.63
2023-05-23T21:05:33.986Z,101936.56
2023-05-23T21:08:35.611Z,101936.72
2023-05-23T21:11:38.493Z,101933.28
2023-05-23T21:14:40.079Z,101931.44
2023-05-23T21:17:41.761Z,101937.78
2023-05-23T21:20:43.669Z,101942.31
2023-05-23T21:23:45.488Z,101938.88
2023-05-23T21:26:47.335Z,101939.00
2023-05-23T21:29:48.931Z,101932.03
2023-05-23T21:32:50.707Z,101929.44
2023-05-23T21:35:52.545Z,101943.66
2023-05-23T21:38:54.103Z,101942.81
2023-05-23T21:41:55.696Z,101932.25
2023-05-23T21:44:57.240Z,101946.50
2023-05-23T21:47:58.926Z,101935.19
2023-05-23T21:51:00.675Z,101930.03
2023-05-23T21:54:02.272Z,101937.13
2023-05-23T21:57:04.252Z,101923.91
2023-05-23T22:00:12.142Z,101919.50
2023-05-23T22:03:13.980Z,101918.72
2023-05-23T22:06:15.844Z,101919.59
2023-05-23T22:09:18.359Z,101915.13
2023-05-23T22:12:20.579Z,101923.59
2023-05-23T22:15:22.238Z,101926.22
2023-05-23T22:18:27.648Z,101923.00
2023-05-23T22:21:30.723Z,101926.63
2023-05-23T22:24:32.316Z,101929.53
2023-05-23T22:27:34.323Z,101926.28
2023-05-23T22:30:35.944Z,101923.91
2023-05-23T22:33:37.594Z,101914.47
2023-05-23T22:36:39.150Z,101915.69
2023-05-23T22:39:40.803Z,101911.59
2023-05-23T22:42:42.530Z,101911.91
2023-05-23T22:45:44.454Z,101913.09
2023-05-23T22:48:46.064Z,101924.03
2023-05-23T22:51:48.513Z,101912.75
2023-05-23T22:54:50.089Z,101912.88
2023-05-23T22:57:51.742Z,101909.56
2023-05-23T23:00:53.356Z,101911.53
2023-05-23T23:03:55.042Z,101910.78
2023-05-23T23:06:59.184Z,101908.25
2023-05-23T23:10:00.883Z,101913.56
2023-05-23T23:13:02.518Z,101909.22
2023-05-23T23:16:04.138Z,101908.38
2023-05-23T23:19:05.807Z,101917.41
2023-05-23T23:22:07.610Z,101910.53
2023-05-23T23:25:12.347Z,101914.09
2023-05-23T23:28:13.918Z,101915.09
2023-05-23T23:31:15.546Z,101914.34
2023-05-23T23:34:17.155Z,101910.91
2023-05-23T23:37:18.849Z,101903.88
2023-05-23T23:40:20.419Z,101904.88
2023-05-23T23:43:21.966Z,101896.13
2023-05-23T23:46:23.599Z,101895.25
2023-05-23T23:49:25.604Z,101899.69
2023-05-23T23:52:28.136Z,101895.38
2023-05-23T23:55:30.196Z,101898.97
2023-05-23T23:58:32.108Z,101897.25
